sensor_id;sensor_type;location;lat;lon;timestamp;pressure;altitude;pressure_sealevel;temperature;humidity
73242;BME280;65659;49.234;-2.094;2023-02-22T00:01:37;100181.97;;;25.55;25.85
73242;BME280;65659;49.234;-2.094;2023-02-22T00:04:04;100181.18;;;25.85;25.74
73242;BME280;65659;49.234;-2.094;2023-02-22T00:06:28;100179.97;;;26.04;25.78
73242;BME280;65659;49.234;-2.094;2023-02-22T00:08:54;100174.58;;;26.01;25.81
73242;BME280;65659;49.234;-2.094;2023-02-22T00:11:19;100175.23;;;25.94;25.89
73242;BME280;65659;49.234;-2.094;2023-02-22T00:13:44;100178.33;;;25.92;25.90
73242;BME280;65659;49.234;-2.094;2023-02-22T00:16:13;100179.83;;;25.69;25.93
73242;BME280;65659;49.234;-2.094;2023-02-22T00:18:35;100180.05;;;25.92;25.93
73242;BME280;65659;49.234;-2.094;2023-02-22T00:21:00;100179.03;;;25.88;25.98
73242;BME280;65659;49.234;-2.094;2023-02-22T00:23:27;100181.14;;;25.88;25.99
73242;BME280;65659;49.234;-2.094;2023-02-22T00:25:51;100183.34;;;25.94;25.92
73242;BME280;65659;49.234;-2.094;2023-02-22T00:28:17;100179.26;;;25.93;25.94
73242;BME280;65659;49.234;-2.094;2023-02-22T00:30:43;100182.17;;;25.67;25.95
73242;BME280;65659;49.234;-2.094;2023-02-22T00:33:09;100183.38;;;25.44;25.95
73242;BME280;65659;49.234;-2.094;2023-02-22T00:35:33;100180.92;;;25.72;25.90
73242;BME280;65659;49.234;-2.094;2023-02-22T00:38:00;100180.74;;;25.70;25.92
73242;BME280;65659;49.234;-2.094;2023-02-22T00:40:27;100179.88;;;25.68;25.92
73242;BME280;65659;49.234;-2.094;2023-02-22T00:42:51;100176.63;;;25.88;25.96
73242;BME280;65659;49.234;-2.094;2023-02-22T00:45:21;100176.88;;;25.40;25.94
73242;BME280;65659;49.234;-2.094;2023-02-22T00:47:42;100180.07;;;25.94;25.88
73242;BME280;65659;49.234;-2.094;2023-02-22T00:50:08;100178.87;;;25.90;25.89
73242;BME280;65659;49.234;-2.094;2023-02-22T00:52:33;100177.41;;;25.64;25.95
73242;BME280;65659;49.234;-2.094;2023-02-22T00:54:59;100174.69;;;25.66;25.90
73242;BME280;65659;49.234;-2.094;2023-02-22T00:57:24;100175.37;;;25.94;25.88
73242;BME280;65659;49.234;-2.094;2023-02-22T00:59:50;100175.58;;;25.96;25.85
73242;BME280;65659;49.234;-2.094;2023-02-22T01:02:16;100175.59;;;25.97;25.84
73242;BME280;65659;49.234;-2.094;2023-02-22T01:04:41;100174.72;;;25.74;25.82
73242;BME280;65659;49.234;-2.094;2023-02-22T01:07:07;100172.96;;;25.52;25.80
73242;BME280;65659;49.234;-2.094;2023-02-22T01:09:33;100169.44;;;25.77;25.80
73242;BME280;65659;49.234;-2.094;2023-02-22T01:11:59;100169.90;;;25.76;25.83
73242;BME280;65659;49.234;-2.094;2023-02-22T01:14:26;100169.44;;;25.74;25.81
73242;BME280;65659;49.234;-2.094;2023-02-22T01:16:52;100167.51;;;25.70;25.84
73242;BME280;65659;49.234;-2.094;2023-02-22T01:19:16;100170.54;;;25.72;25.82
73242;BME280;65659;49.234;-2.094;2023-02-22T01:21:42;100166.94;;;25.69;25.86
73242;BME280;65659;49.234;-2.094;2023-02-22T01:24:07;100167.69;;;25.42;25.89
73242;BME280;65659;49.234;-2.094;2023-02-22T01:26:33;100168.65;;;25.91;25.87
73242;BME280;65659;49.234;-2.094;2023-02-22T01:28:58;100168.95;;;25.64;25.91
73242;BME280;65659;49.234;-2.094;2023-02-22T01:31:24;100165.94;;;25.85;25.96
73242;BME280;65659;49.234;-2.094;2023-02-22T01:33:50;100169.53;;;25.63;25.94
73242;BME280;65659;49.234;-2.094;2023-02-22T01:36:16;100171.53;;;25.64;25.93
73242;BME280;65659;49.234;-2.094;2023-02-22T01:38:42;100170.59;;;25.86;25.96
73242;BME280;65659;49.234;-2.094;2023-02-22T01:41:07;100173.24;;;25.89;25.91
73242;BME280;65659;49.234;-2.094;2023-02-22T01:43:33;100171.74;;;25.93;25.88
73242;BME280;65659;49.234;-2.094;2023-02-22T01:46:00;100169.22;;;25.67;25.87
73242;BME280;65659;49.234;-2.094;2023-02-22T01:48:32;100170.18;;;25.67;25.87
73242;BME280;65659;49.234;-2.094;2023-02-22T01:50:54;100171.69;;;25.44;25.87
73242;BME280;65659;49.234;-2.094;2023-02-22T01:53:17;100171.63;;;25.71;25.87
73242;BME280;65659;49.234;-2.094;2023-02-22T01:55:43;100169.74;;;25.95;25.87
73242;BME280;65659;49.234;-2.094;2023-02-22T01:58:08;100168.91;;;25.92;25.89
73242;BME280;65659;49.234;-2.094;2023-02-22T02:00:33;100169.00;;;25.92;25.91
73242;BME280;65659;49.234;-2.094;2023-02-22T02:03:01;100170.10;;;25.71;25.87
73242;BME280;65659;49.234;-2.094;2023-02-22T02:05:25;100170.70;;;25.50;25.81
73242;BME280;65659;49.234;-2.094;2023-02-22T02:07:51;100173.02;;;25.98;25.83
73242;BME280;65659;49.234;-2.094;2023-02-22T02:10:16;100170.86;;;25.94;25.87
73242;BME280;65659;49.234;-2.094;2023-02-22T02:12:45;100167.14;;;25.71;25.85
73242;BME280;65659;49.234;-2.094;2023-02-22T02:15:18;100167.58;;;25.96;25.86
73242;BME280;65659;49.234;-2.094;2023-02-22T02:17:33;100163.30;;;25.97;25.84
73242;BME280;65659;49.234;-2.094;2023-02-22T02:20:04;100157.75;;;25.69;25.88
73242;BME280;65659;49.234;-2.094;2023-02-22T02:22:34;100158.16;;;25.45;25.85
73242;BME280;65659;49.234;-2.094;2023-02-22T02:27:18;100147.91;;;25.71;25.85
73242;BME280;65659;49.234;-2.094;2023-02-22T02:32:16;100149.86;;;25.93;25.85
73242;BME280;65659;49.234;-2.094;2023-02-22T02:34:38;100148.11;;;25.69;25.86
73242;BME280;65659;49.234;-2.094;2023-02-22T02:37:05;100149.78;;;25.96;25.81
73242;BME280;65659;49.234;-2.094;2023-02-22T02:39:28;100147.74;;;25.48;25.83
73242;BME280;65659;49.234;-2.094;2023-02-22T02:41:51;100147.19;;;25.71;25.83
73242;BME280;65659;49.234;-2.094;2023-02-22T02:44:21;100149.83;;;25.96;25.81
73242;BME280;65659;49.234;-2.094;2023-02-22T02:46:46;100150.12;;;25.74;25.82
73242;BME280;65659;49.234;-2.094;2023-02-22T02:49:12;100144.05;;;25.72;25.83
73242;BME280;65659;49.234;-2.094;2023-02-22T02:51:39;100143.01;;;25.67;25.90
73242;BME280;65659;49.234;-2.094;2023-02-22T02:54:01;100137.78;;;25.86;25.93
73242;BME280;65659;49.234;-2.094;2023-02-22T02:56:26;100139.59;;;25.63;25.91
73242;BME280;65659;49.234;-2.094;2023-02-22T02:58:52;100134.72;;;25.66;25.88
73242;BME280;65659;49.234;-2.094;2023-02-22T03:01:24;100134.18;;;25.65;25.90
73242;BME280;65659;49.234;-2.094;2023-02-22T03:03:49;100131.93;;;25.44;25.89
73242;BME280;65659;49.234;-2.094;2023-02-22T03:06:18;100130.75;;;25.70;25.86
73242;BME280;65659;49.234;-2.094;2023-02-22T03:08:40;100129.12;;;25.71;25.88
73242;BME280;65659;49.234;-2.094;2023-02-22T03:11:05;100124.64;;;25.73;25.84
73242;BME280;65659;49.234;-2.094;2023-02-22T03:13:39;100124.03;;;25.93;25.88
73242;BME280;65659;49.234;-2.094;2023-02-22T03:15:55;100122.09;;;25.70;25.88
73242;BME280;65659;49.234;-2.094;2023-02-22T03:18:21;100120.40;;;25.68;25.89
73242;BME280;65659;49.234;-2.094;2023-02-22T03:20:45;100121.08;;;25.70;25.89
73242;BME280;65659;49.234;-2.094;2023-02-22T03:23:16;100119.15;;;25.48;25.87
73242;BME280;65659;49.234;-2.094;2023-02-22T03:25:38;100115.62;;;25.68;25.89
73242;BME280;65659;49.234;-2.094;2023-02-22T03:28:03;100113.70;;;25.65;25.93
73242;BME280;65659;49.234;-2.094;2023-02-22T03:30:30;100113.79;;;25.64;25.95
73242;BME280;65659;49.234;-2.094;2023-02-22T03:32:55;100116.27;;;25.66;25.96
73242;BME280;65659;49.234;-2.094;2023-02-22T03:35:19;100115.65;;;25.46;25.89
73242;BME280;65659;49.234;-2.094;2023-02-22T03:37:45;100115.63;;;25.72;25.88
73242;BME280;65659;49.234;-2.094;2023-02-22T03:40:11;100114.10;;;25.74;25.85
73242;BME280;65659;49.234;-2.094;2023-02-22T03:42:35;100112.36;;;25.97;25.85
73242;BME280;65659;49.234;-2.094;2023-02-22T03:45:02;100110.54;;;25.92;25.90
73242;BME280;65659;49.234;-2.094;2023-02-22T03:47:31;100111.63;;;25.69;25.88
73242;BME280;65659;49.234;-2.094;2023-02-22T03:49:54;100108.66;;;25.93;25.91
73242;BME280;65659;49.234;-2.094;2023-02-22T03:52:17;100105.01;;;25.94;25.89
73242;BME280;65659;49.234;-2.094;2023-02-22T03:54:42;100102.64;;;25.90;25.91
73242;BME280;65659;49.234;-2.094;2023-02-22T03:57:13;100102.77;;;25.88;25.92
73242;BME280;65659;49.234;-2.094;2023-02-22T03:59:34;100098.68;;;25.85;25.94
73242;BME280;65659;49.234;-2.094;2023-02-22T04:02:00;100099.67;;;25.85;25.94
73242;BME280;65659;49.234;-2.094;2023-02-22T04:04:25;100100.14;;;25.88;25.93
73242;BME280;65659;49.234;-2.094;2023-02-22T04:06:51;100100.49;;;25.38;25.94
73242;BME280;65659;49.234;-2.094;2023-02-22T04:09:17;100097.08;;;25.82;25.98
73242;BME280;65659;49.234;-2.094;2023-02-22T04:11:43;100097.60;;;25.60;25.99
73242;BME280;65659;49.234;-2.094;2023-02-22T04:14:08;100096.15;;;25.33;25.98
73242;BME280;65659;49.234;-2.094;2023-02-22T04:16:34;100092.53;;;25.37;25.95
73242;BME280;65659;49.234;-2.094;2023-02-22T04:19:00;100089.94;;;25.82;25.96
73242;BME280;65659;49.234;-2.094;2023-02-22T04:21:26;100091.71;;;26.06;25.96
73242;BME280;65659;49.234;-2.094;2023-02-22T04:23:51;100090.90;;;25.52;26.04
73242;BME280;65659;49.234;-2.094;2023-02-22T04:26:17;100093.19;;;25.79;26.03
73242;BME280;65659;49.234;-2.094;2023-02-22T04:28:43;100091.75;;;25.56;26.02
73242;BME280;65659;49.234;-2.094;2023-02-22T04:31:09;100094.57;;;25.54;26.02
73242;BME280;65659;49.234;-2.094;2023-02-22T04:33:35;100096.28;;;25.77;26.06
73242;BME280;65659;49.234;-2.094;2023-02-22T04:36:00;100095.50;;;25.54;26.07
73242;BME280;65659;49.234;-2.094;2023-02-22T04:38:26;100098.03;;;25.56;26.04
73242;BME280;65659;49.234;-2.094;2023-02-22T04:40:52;100097.71;;;25.78;26.07
73242;BME280;65659;49.234;-2.094;2023-02-22T04:43:17;100102.36;;;25.79;26.05
73242;BME280;65659;49.234;-2.094;2023-02-22T04:45:43;100103.01;;;25.79;26.02
73242;BME280;65659;49.234;-2.094;2023-02-22T04:48:09;100100.64;;;25.81;26.01
73242;BME280;65659;49.234;-2.094;2023-02-22T04:50:34;100104.23;;;26.03;26.03
73242;BME280;65659;49.234;-2.094;2023-02-22T04:53:00;100105.61;;;25.84;25.97
73242;BME280;65659;49.234;-2.094;2023-02-22T04:55:26;100105.92;;;25.76;26.06
73242;BME280;65659;49.234;-2.094;2023-02-22T04:57:51;100105.46;;;25.54;26.04
73242;BME280;65659;49.234;-2.094;2023-02-22T05:00:18;100106.22;;;25.78;26.08
73242;BME280;65659;49.234;-2.094;2023-02-22T05:02:44;100106.77;;;25.82;26.03
73242;BME280;65659;49.234;-2.094;2023-02-22T05:05:09;100108.93;;;25.64;25.97
73242;BME280;65659;49.234;-2.094;2023-02-22T05:07:34;100110.73;;;25.88;25.95
73242;BME280;65659;49.234;-2.094;2023-02-22T05:10:00;100110.03;;;25.54;26.03
73242;BME280;65659;49.234;-2.094;2023-02-22T05:12:26;100105.98;;;25.80;26.04
73242;BME280;65659;49.234;-2.094;2023-02-22T05:14:52;100107.36;;;25.78;26.03
73242;BME280;65659;49.234;-2.094;2023-02-22T05:17:17;100106.81;;;25.81;25.99
73242;BME280;65659;49.234;-2.094;2023-02-22T05:19:43;100108.60;;;25.81;25.99
73242;BME280;65659;49.234;-2.094;2023-02-22T05:22:09;100107.25;;;25.60;25.95
73242;BME280;65659;49.234;-2.094;2023-02-22T05:24:34;100108.12;;;25.87;25.93
73242;BME280;65659;49.234;-2.094;2023-02-22T05:27:00;100107.65;;;25.88;25.90
73242;BME280;65659;49.234;-2.094;2023-02-22T05:29:26;100111.43;;;25.87;25.92
73242;BME280;65659;49.234;-2.094;2023-02-22T05:31:52;100110.39;;;25.81;25.96
73242;BME280;65659;49.234;-2.094;2023-02-22T05:34:18;100111.68;;;25.70;26.10
73242;BME280;65659;49.234;-2.094;2023-02-22T05:36:45;100111.51;;;25.86;26.17
73242;BME280;65659;49.234;-2.094;2023-02-22T05:39:09;100111.68;;;25.33;26.22
73242;BME280;65659;49.234;-2.094;2023-02-22T05:41:35;100110.79;;;25.77;26.02
73242;BME280;65659;49.234;-2.094;2023-02-22T05:44:00;100111.30;;;25.56;25.99
73242;BME280;65659;49.234;-2.094;2023-02-22T05:46:26;100111.53;;;25.81;25.97
73242;BME280;65659;49.234;-2.094;2023-02-22T05:48:52;100110.07;;;25.80;25.95
73242;BME280;65659;49.234;-2.094;2023-02-22T05:51:17;100113.85;;;25.87;25.91
73242;BME280;65659;49.234;-2.094;2023-02-22T05:53:44;100113.63;;;25.66;25.91
73242;BME280;65659;49.234;-2.094;2023-02-22T05:56:09;100116.20;;;25.86;25.94
73242;BME280;65659;49.234;-2.094;2023-02-22T05:58:35;100114.36;;;25.32;25.98
73242;BME280;65659;49.234;-2.094;2023-02-22T06:01:00;100115.56;;;25.58;25.97
73242;BME280;65659;49.234;-2.094;2023-02-22T06:03:26;100114.33;;;25.59;25.96
73242;BME280;65659;49.234;-2.094;2023-02-22T06:05:52;100113.50;;;25.36;25.92
73242;BME280;65659;49.234;-2.094;2023-02-22T06:08:17;100111.40;;;25.58;25.95
73242;BME280;65659;49.234;-2.094;2023-02-22T06:10:44;100115.07;;;25.57;25.95
73242;BME280;65659;49.234;-2.094;2023-02-22T06:13:09;100117.14;;;25.78;25.98
73242;BME280;65659;49.234;-2.094;2023-02-22T06:15:35;100116.16;;;25.81;25.97
73242;BME280;65659;49.234;-2.094;2023-02-22T06:18:01;100119.26;;;25.62;25.89
73242;BME280;65659;49.234;-2.094;2023-02-22T06:20:28;100118.34;;;25.78;25.99
73242;BME280;65659;49.234;-2.094;2023-02-22T06:22:54;100120.13;;;25.63;25.88
73242;BME280;65659;49.234;-2.094;2023-02-22T06:25:19;100119.50;;;25.40;25.88
73242;BME280;65659;49.234;-2.094;2023-02-22T06:27:44;100121.24;;;25.66;25.86
73242;BME280;65659;49.234;-2.094;2023-02-22T06:30:11;100122.05;;;25.71;25.80
73242;BME280;65659;49.234;-2.094;2023-02-22T06:32:35;100123.35;;;25.71;25.80
73242;BME280;65659;49.234;-2.094;2023-02-22T06:35:00;100122.46;;;25.90;25.89
73242;BME280;65659;49.234;-2.094;2023-02-22T06:37:26;100122.97;;;25.42;25.88
73242;BME280;65659;49.234;-2.094;2023-02-22T06:39:52;100124.96;;;25.85;25.94
73242;BME280;65659;49.234;-2.094;2023-02-22T06:42:18;100125.90;;;25.62;25.91
73242;BME280;65659;49.234;-2.094;2023-02-22T06:44:44;100123.05;;;25.92;25.84
73242;BME280;65659;49.234;-2.094;2023-02-22T06:47:09;100125.85;;;25.96;25.81
73242;BME280;65659;49.234;-2.094;2023-02-22T06:49:35;100127.46;;;25.76;25.75
73242;BME280;65659;49.234;-2.094;2023-02-22T06:52:03;100128.48;;;25.51;25.80
73242;BME280;65659;49.234;-2.094;2023-02-22T06:54:26;100131.48;;;25.81;25.71
73242;BME280;65659;49.234;-2.094;2023-02-22T06:56:52;100129.48;;;25.64;25.64
73242;BME280;65659;49.234;-2.094;2023-02-22T06:59:18;100131.74;;;25.86;25.64
73242;BME280;65659;49.234;-2.094;2023-02-22T07:01:44;100132.30;;;25.83;25.65
73242;BME280;65659;49.234;-2.094;2023-02-22T07:04:09;100132.26;;;25.56;25.69
73242;BME280;65659;49.234;-2.094;2023-02-22T07:06:35;100131.53;;;25.54;25.71
73242;BME280;65659;49.234;-2.094;2023-02-22T07:09:01;100134.72;;;25.99;25.72
73242;BME280;65659;49.234;-2.094;2023-02-22T07:11:26;100135.89;;;25.42;25.81
73242;BME280;65659;49.234;-2.094;2023-02-22T07:13:52;100137.92;;;25.69;25.80
73242;BME280;65659;49.234;-2.094;2023-02-22T07:16:18;100142.68;;;25.45;25.80
73242;BME280;65659;49.234;-2.094;2023-02-22T07:18:44;100140.72;;;25.70;25.77
73242;BME280;65659;49.234;-2.094;2023-02-22T07:21:09;100142.91;;;25.52;25.72
73242;BME280;65659;49.234;-2.094;2023-02-22T07:23:35;100142.36;;;25.78;25.70
73242;BME280;65659;49.234;-2.094;2023-02-22T07:26:02;100144.47;;;25.92;25.57
73242;BME280;65659;49.234;-2.094;2023-02-22T07:28:26;100144.34;;;25.75;25.47
73242;BME280;65659;49.234;-2.094;2023-02-22T07:30:52;100145.06;;;25.81;25.42
73242;BME280;65659;49.234;-2.094;2023-02-22T07:33:18;100147.06;;;25.62;25.37
73242;BME280;65659;49.234;-2.094;2023-02-22T07:35:45;100149.78;;;25.86;25.36
73242;BME280;65659;49.234;-2.094;2023-02-22T07:38:09;100150.30;;;25.34;25.42
73242;BME280;65659;49.234;-2.094;2023-02-22T07:40:36;100152.46;;;25.87;25.37
73242;BME280;65659;49.234;-2.094;2023-02-22T07:43:03;100150.64;;;25.87;25.37
73242;BME280;65659;49.234;-2.094;2023-02-22T07:45:28;100152.63;;;25.44;25.32
73242;BME280;65659;49.234;-2.094;2023-02-22T07:47:53;100152.66;;;25.77;25.21
73242;BME280;65659;49.234;-2.094;2023-02-22T07:50:21;100157.06;;;25.52;25.21
73242;BME280;65659;49.234;-2.094;2023-02-22T07:52:45;100158.29;;;25.61;25.13
73242;BME280;65659;49.234;-2.094;2023-02-22T07:55:09;100159.06;;;25.68;25.10
73242;BME280;65659;49.234;-2.094;2023-02-22T07:57:36;100160.20;;;25.75;25.02
73242;BME280;65659;49.234;-2.094;2023-02-22T08:00:02;100161.78;;;25.60;24.93
73242;BME280;65659;49.234;-2.094;2023-02-22T08:02:27;100163.91;;;25.51;24.81
73242;BME280;65659;49.234;-2.094;2023-02-22T08:04:53;100163.63;;;25.67;24.61
73242;BME280;65659;49.234;-2.094;2023-02-22T08:07:18;100162.01;;;25.69;24.61
73242;BME280;65659;49.234;-2.094;2023-02-22T08:09:44;100165.04;;;25.90;24.64
73242;BME280;65659;49.234;-2.094;2023-02-22T08:12:10;100166.07;;;26.15;24.61
73242;BME280;65659;49.234;-2.094;2023-02-22T08:14:35;100163.24;;;25.75;24.52
73242;BME280;65659;49.234;-2.094;2023-02-22T08:17:01;100167.11;;;25.87;24.43
73242;BME280;65659;49.234;-2.094;2023-02-22T08:19:27;100168.45;;;25.93;24.38
73242;BME280;65659;49.234;-2.094;2023-02-22T08:21:53;100169.15;;;25.61;24.24
73242;BME280;65659;49.234;-2.094;2023-02-22T08:24:19;100166.20;;;25.86;24.26
73242;BME280;65659;49.234;-2.094;2023-02-22T08:26:45;100162.40;;;25.75;24.13
73242;BME280;65659;49.234;-2.094;2023-02-22T08:29:10;100159.73;;;25.44;23.94
73242;BME280;65659;49.234;-2.094;2023-02-22T08:31:36;100154.22;;;25.50;23.64
73242;BME280;65659;49.234;-2.094;2023-02-22T08:34:02;100154.88;;;25.54;23.42
73242;BME280;65659;49.234;-2.094;2023-02-22T08:36:27;100156.95;;;25.91;23.25
73242;BME280;65659;49.234;-2.094;2023-02-22T08:38:53;100153.96;;;25.74;23.20
73242;BME280;65659;49.234;-2.094;2023-02-22T08:41:19;100156.58;;;26.07;23.11
73242;BME280;65659;49.234;-2.094;2023-02-22T08:43:45;100155.65;;;26.05;23.16
73242;BME280;65659;49.234;-2.094;2023-02-22T08:46:10;100155.38;;;26.07;23.12
73242;BME280;65659;49.234;-2.094;2023-02-22T08:48:36;100157.03;;;26.12;23.06
73242;BME280;65659;49.234;-2.094;2023-02-22T08:51:02;100157.04;;;26.17;22.99
73242;BME280;65659;49.234;-2.094;2023-02-22T08:53:27;100155.21;;;26.16;23.01
73242;BME280;65659;49.234;-2.094;2023-02-22T08:55:53;100157.91;;;26.53;22.94
73242;BME280;65659;49.234;-2.094;2023-02-22T08:58:19;100160.33;;;26.06;22.95
73242;BME280;65659;49.234;-2.094;2023-02-22T09:00:45;100158.95;;;26.08;22.98
73242;BME280;65659;49.234;-2.094;2023-02-22T09:03:13;100155.37;;;26.21;22.85
73242;BME280;65659;49.234;-2.094;2023-02-22T09:05:36;100154.68;;;26.21;22.93
73242;BME280;65659;49.234;-2.094;2023-02-22T09:08:04;100157.34;;;26.23;22.90
73242;BME280;65659;49.234;-2.094;2023-02-22T09:10:30;100160.64;;;26.18;23.37
73242;BME280;65659;49.234;-2.094;2023-02-22T09:12:54;100158.78;;;26.25;23.32
73242;BME280;65659;49.234;-2.094;2023-02-22T09:15:20;100160.84;;;26.28;23.43
73242;BME280;65659;49.234;-2.094;2023-02-22T09:17:45;100159.55;;;25.98;23.83
73242;BME280;65659;49.234;-2.094;2023-02-22T09:20:12;100161.70;;;25.98;23.92
73242;BME280;65659;49.234;-2.094;2023-02-22T09:22:37;100163.63;;;26.16;23.80
73242;BME280;65659;49.234;-2.094;2023-02-22T09:25:03;100160.87;;;26.50;23.65
73242;BME280;65659;49.234;-2.094;2023-02-22T09:27:28;100163.74;;;26.38;23.94
73242;BME280;65659;49.234;-2.094;2023-02-22T09:29:54;100163.87;;;26.58;24.56
73242;BME280;65659;49.234;-2.094;2023-02-22T09:32:19;100160.72;;;26.31;24.58
73242;BME280;65659;49.234;-2.094;2023-02-22T09:34:49;100158.08;;;26.12;24.59
73242;BME280;65659;49.234;-2.094;2023-02-22T09:37:11;100154.07;;;26.15;24.82
73242;BME280;65659;49.234;-2.094;2023-02-22T09:39:37;100150.69;;;26.45;24.12
73242;BME280;65659;49.234;-2.094;2023-02-22T09:42:07;100154.09;;;26.59;24.36
73242;BME280;65659;49.234;-2.094;2023-02-22T09:44:35;100152.06;;;26.43;23.93
73242;BME280;65659;49.234;-2.094;2023-02-22T09:46:53;100156.61;;;26.16;23.89
73242;BME280;65659;49.234;-2.094;2023-02-22T09:49:23;100156.56;;;26.65;24.04
73242;BME280;65659;49.234;-2.094;2023-02-22T09:51:49;100157.04;;;26.42;24.02
73242;BME280;65659;49.234;-2.094;2023-02-22T09:54:18;100158.49;;;26.29;23.73
73242;BME280;65659;49.234;-2.094;2023-02-22T09:56:37;100166.97;;;26.58;23.66
73242;BME280;65659;49.234;-2.094;2023-02-22T09:59:07;100163.76;;;26.35;23.73
73242;BME280;65659;49.234;-2.094;2023-02-22T10:01:31;100164.98;;;26.85;23.84
73242;BME280;65659;49.234;-2.094;2023-02-22T10:03:58;100166.98;;;26.48;23.78
73242;BME280;65659;49.234;-2.094;2023-02-22T10:06:24;100169.06;;;26.69;23.64
73242;BME280;65659;49.234;-2.094;2023-02-22T10:08:46;100174.38;;;26.57;23.49
73242;BME280;65659;49.234;-2.094;2023-02-22T10:11:18;100177.47;;;26.46;23.58
73242;BME280;65659;49.234;-2.094;2023-02-22T10:13:42;100178.61;;;26.47;23.53
73242;BME280;65659;49.234;-2.094;2023-02-22T10:16:07;100184.60;;;26.79;23.17
73242;BME280;65659;49.234;-2.094;2023-02-22T10:20:55;100184.95;;;26.46;23.53
73242;BME280;65659;49.234;-2.094;2023-02-22T10:23:24;100187.35;;;26.36;23.49
73242;BME280;65659;49.234;-2.094;2023-02-22T10:25:47;100186.18;;;26.64;23.46
73242;BME280;65659;49.234;-2.094;2023-02-22T10:28:15;100187.30;;;26.37;23.47
73242;BME280;65659;49.234;-2.094;2023-02-22T10:30:42;100185.41;;;26.66;23.41
73242;BME280;65659;49.234;-2.094;2023-02-22T10:33:08;100188.53;;;26.15;23.45
73242;BME280;65659;49.234;-2.094;2023-02-22T10:35:32;100187.86;;;26.45;23.33
73242;BME280;65659;49.234;-2.094;2023-02-22T10:37:57;100188.39;;;26.18;23.31
73242;BME280;65659;49.234;-2.094;2023-02-22T10:40:21;100189.73;;;26.19;23.39
73242;BME280;65659;49.234;-2.094;2023-02-22T10:42:45;100190.71;;;26.73;23.29
73242;BME280;65659;49.234;-2.094;2023-02-22T10:45:19;100190.54;;;26.18;23.28
73242;BME280;65659;49.234;-2.094;2023-02-22T10:47:38;100195.23;;;26.47;23.21
73242;BME280;65659;49.234;-2.094;2023-02-22T10:50:05;100197.38;;;26.54;23.26
73242;BME280;65659;49.234;-2.094;2023-02-22T10:52:29;100198.63;;;26.65;23.41
73242;BME280;65659;49.234;-2.094;2023-02-22T10:54:56;100199.96;;;26.48;23.41
73242;BME280;65659;49.234;-2.094;2023-02-22T10:57:21;100200.33;;;26.57;23.25
73242;BME280;65659;49.234;-2.094;2023-02-22T10:59:48;100205.13;;;26.57;23.13
73242;BME280;65659;49.234;-2.094;2023-02-22T11:02:19;100208.25;;;26.58;23.29
73242;BME280;65659;49.234;-2.094;2023-02-22T11:04:45;100208.55;;;26.38;23.14
73242;BME280;65659;49.234;-2.094;2023-02-22T11:07:15;100213.19;;;26.36;23.30
73242;BME280;65659;49.234;-2.094;2023-02-22T11:09:28;100216.28;;;26.29;23.48
73242;BME280;65659;49.234;-2.094;2023-02-22T11:14:25;100217.33;;;26.72;23.43
73242;BME280;65659;49.234;-2.094;2023-02-22T11:16:49;100220.92;;;26.52;23.33
73242;BME280;65659;49.234;-2.094;2023-02-22T11:19:19;100220.31;;;26.52;23.23
73242;BME280;65659;49.234;-2.094;2023-02-22T11:21:36;100220.64;;;26.75;23.22
73242;BME280;65659;49.234;-2.094;2023-02-22T11:24:03;100226.13;;;26.55;23.25
73242;BME280;65659;49.234;-2.094;2023-02-22T11:26:28;100223.76;;;26.54;23.11
73242;BME280;65659;49.234;-2.094;2023-02-22T11:28:53;100227.24;;;26.72;23.22
73242;BME280;65659;49.234;-2.094;2023-02-22T11:31:22;100227.86;;;26.46;23.23
73242;BME280;65659;49.234;-2.094;2023-02-22T11:33:53;100228.54;;;26.45;23.27
73242;BME280;65659;49.234;-2.094;2023-02-22T11:36:10;100228.08;;;26.46;23.31
73242;BME280;65659;49.234;-2.094;2023-02-22T11:38:37;100223.30;;;26.69;23.30
73242;BME280;65659;49.234;-2.094;2023-02-22T11:41:10;100223.79;;;26.35;23.29
73242;BME280;65659;49.234;-2.094;2023-02-22T11:43:27;100219.40;;;26.30;23.36
73242;BME280;65659;49.234;-2.094;2023-02-22T11:46:01;100221.27;;;26.13;23.28
73242;BME280;65659;49.234;-2.094;2023-02-22T11:48:19;100223.56;;;26.36;23.25
73242;BME280;65659;49.234;-2.094;2023-02-22T11:50:54;100227.52;;;26.59;23.16
73242;BME280;65659;49.234;-2.094;2023-02-22T11:53:24;100232.84;;;26.12;23.22
73242;BME280;65659;49.234;-2.094;2023-02-22T11:55:41;100239.71;;;26.67;23.10
73242;BME280;65659;49.234;-2.094;2023-02-22T11:58:08;100239.78;;;26.67;23.05
73242;BME280;65659;49.234;-2.094;2023-02-22T12:00:37;100236.40;;;26.47;23.01
73242;BME280;65659;49.234;-2.094;2023-02-22T12:03:12;100235.02;;;26.19;23.00
73242;BME280;65659;49.234;-2.094;2023-02-22T12:05:28;100235.73;;;26.71;22.91
73242;BME280;65659;49.234;-2.094;2023-02-22T12:07:55;100234.70;;;26.46;22.90
73242;BME280;65659;49.234;-2.094;2023-02-22T12:10:19;100233.81;;;26.66;23.07
73242;BME280;65659;49.234;-2.094;2023-02-22T12:12:43;100233.73;;;26.43;23.09
73242;BME280;65659;49.234;-2.094;2023-02-22T12:15:07;100230.91;;;26.72;22.99
73242;BME280;65659;49.234;-2.094;2023-02-22T12:17:36;100233.73;;;26.47;22.96
73242;BME280;65659;49.234;-2.094;2023-02-22T12:19:55;100225.99;;;26.16;23.03
73242;BME280;65659;49.234;-2.094;2023-02-22T12:22:23;100224.65;;;26.39;23.01
73242;BME280;65659;49.234;-2.094;2023-02-22T12:24:47;100226.02;;;26.29;23.02
73242;BME280;65659;49.234;-2.094;2023-02-22T12:27:13;100223.48;;;26.47;23.10
73242;BME280;65659;49.234;-2.094;2023-02-22T12:29:40;100227.16;;;26.47;23.18
73242;BME280;65659;49.234;-2.094;2023-02-22T12:32:06;100225.11;;;26.02;23.06
73242;BME280;65659;49.234;-2.094;2023-02-22T12:34:33;100221.87;;;26.26;23.02
73242;BME280;65659;49.234;-2.094;2023-02-22T12:36:55;100228.94;;;26.48;23.03
73242;BME280;65659;49.234;-2.094;2023-02-22T12:39:39;100229.95;;;26.29;23.03
73242;BME280;65659;49.234;-2.094;2023-02-22T12:41:53;100228.14;;;26.47;23.06